createdAt,value
2017-11-08T00:00:03.252Z,0
2017-11-08T00:00:29.372Z,0
2017-11-08T00:00:55.498Z,0
2017-11-08T00:01:21.635Z,0
2017-11-08T00:01:47.758Z,0
2017-11-08T00:02:13.879Z,0
2017-11-08T00:02:40.003Z,0
2017-11-08T00:03:06.132Z,0
2017-11-08T00:03:32.241Z,0
2017-11-08T00:03:58.355Z,0
2017-11-08T00:04:24.479Z,0
2017-11-08T00:04:50.601Z,0
2017-11-08T00:05:16.724Z,0
2017-11-08T00:05:42.852Z,0
2017-11-08T00:06:08.977Z,0
2017-11-08T00:06:35.092Z,0
2017-11-08T00:07:01.209Z,0
2017-11-08T00:07:27.335Z,0
2017-11-08T00:07:53.449Z,0
2017-11-08T00:08:19.571Z,0
2017-11-08T00:08:45.697Z,0
2017-11-08T00:09:11.810Z,0
2017-11-08T00:09:37.969Z,0
2017-11-08T00:10:04.090Z,0
2017-11-08T00:10:30.219Z,0
2017-11-08T00:10:56.346Z,0
2017-11-08T00:11:22.460Z,0
2017-11-08T00:11:48.584Z,0
2017-11-08T00:12:14.706Z,0
2017-11-08T00:12:40.821Z,0
2017-11-08T00:13:06.948Z,0
2017-11-08T00:13:33.069Z,0
2017-11-08T00:13:59.186Z,0
2017-11-08T00:14:25.313Z,0
2017-11-08T00:14:51.430Z,0
2017-11-08T00:15:17.548Z,0
2017-11-08T00:15:43.674Z,0
2017-11-08T00:16:09.788Z,0
2017-11-08T00:16:35.915Z,0
2017-11-08T00:17:02.042Z,0
2017-11-08T00:17:28.155Z,0
2017-11-08T00:17:54.301Z,0
2017-11-08T00:18:20.417Z,0
2017-11-08T00:18:46.542Z,0
2017-11-08T00:19:12.660Z,0
2017-11-08T00:19:38.779Z,0
2017-11-08T00:20:04.903Z,0
2017-11-08T00:20:31.049Z,0
2017-11-08T00:20:57.184Z,0
2017-11-08T00:21:23.302Z,0
2017-11-08T00:21:49.431Z,0
2017-11-08T00:22:15.546Z,0
2017-11-08T00:22:41.671Z,0
2017-11-08T00:23:07.783Z,0
2017-11-08T00:23:33.903Z,0
2017-11-08T00:24:00.025Z,0
2017-11-08T00:24:26.147Z,0
2017-11-08T00:24:52.283Z,0
2017-11-08T00:25:18.419Z,0
2017-11-08T00:25:44.538Z,0
2017-11-08T00:26:10.660Z,0
2017-11-08T00:26:36.786Z,0
2017-11-08T00:27:02.904Z,0
2017-11-08T00:27:29.020Z,0
2017-11-08T00:27:55.146Z,0
2017-11-08T00:28:21.271Z,0
2017-11-08T00:28:47.380Z,0
2017-11-08T00:29:13.523Z,0
2017-11-08T00:29:39.624Z,0
2017-11-08T00:30:05.750Z,0
2017-11-08T00:30:31.895Z,0
2017-11-08T00:30:58.016Z,0
2017-11-08T00:31:24.128Z,0
2017-11-08T00:31:50.260Z,0
2017-11-08T00:32:16.395Z,0
2017-11-08T00:32:42.528Z,0
2017-11-08T00:33:08.639Z,0
2017-11-08T00:33:34.760Z,0
2017-11-08T00:34:00.882Z,0
2017-11-08T00:34:27.008Z,0
2017-11-08T00:34:53.130Z,0
2017-11-08T00:35:19.244Z,0
2017-11-08T00:35:45.392Z,0
2017-11-08T00:36:11.513Z,0
2017-11-08T00:36:37.630Z,0
2017-11-08T00:37:03.779Z,0
2017-11-08T00:37:29.895Z,0
2017-11-08T00:37:56.020Z,0
2017-11-08T00:38:22.136Z,0
2017-11-08T00:38:48.261Z,0
2017-11-08T00:39:14.376Z,0
2017-11-08T00:39:40.500Z,0
2017-11-08T00:40:06.615Z,0
2017-11-08T00:40:32.740Z,0
2017-11-08T00:40:58.871Z,0
2017-11-08T00:41:24.982Z,0
2017-11-08T00:41:51.109Z,0
2017-11-08T00:42:17.231Z,0
2017-11-08T00:42:43.347Z,0
2017-11-08T00:43:09.472Z,0
2017-11-08T00:43:35.590Z,0
2017-11-08T00:44:01.709Z,0
2017-11-08T00:44:27.830Z,0
2017-11-08T00:44:53.956Z,0
2017-11-08T00:45:20.082Z,0
2017-11-08T00:45:46.196Z,0
2017-11-08T00:46:12.312Z,0
2017-11-08T00:46:38.432Z,0
2017-11-08T00:47:04.554Z,0
2017-11-08T00:47:30.679Z,0
2017-11-08T00:47:56.797Z,0
2017-11-08T00:48:22.921Z,0
2017-11-08T00:48:49.042Z,0
2017-11-08T00:49:15.166Z,0
2017-11-08T00:49:41.282Z,0
2017-11-08T00:50:07.405Z,0
2017-11-08T00:50:33.520Z,0
2017-11-08T00:50:59.649Z,0
2017-11-08T00:51:25.770Z,0
2017-11-08T00:51:51.885Z,0
2017-11-08T00:52:18.035Z,0
2017-11-08T00:52:44.162Z,0
2017-11-08T00:53:10.275Z,0
2017-11-08T00:53:36.399Z,0
2017-11-08T00:54:02.522Z,0
2017-11-08T00:54:28.638Z,0
2017-11-08T00:54:54.763Z,0
2017-11-08T00:55:20.882Z,0
2017-11-08T00:55:47.005Z,0
2017-11-08T00:56:13.125Z,0
2017-11-08T00:56:39.247Z,0
2017-11-08T00:57:05.366Z,0
2017-11-08T00:57:31.486Z,0
2017-11-08T00:57:57.636Z,0
2017-11-08T00:58:23.757Z,0
2017-11-08T00:58:49.878Z,0
2017-11-08T00:59:16.003Z,0
2017-11-08T00:59:42.118Z,0
2017-11-08T01:00:08.243Z,0
2017-11-08T01:00:34.363Z,0
2017-11-08T01:01:00.487Z,0
2017-11-08T01:01:26.628Z,0
2017-11-08T01:01:52.744Z,0
2017-11-08T01:02:18.873Z,0
2017-11-08T01:02:44.998Z,0
2017-11-08T01:03:11.113Z,0
2017-11-08T01:03:37.233Z,0
2017-11-08T01:04:03.362Z,0
2017-11-08T01:04:29.478Z,0
2017-11-08T01:04:55.599Z,0
2017-11-08T01:05:21.732Z,0
2017-11-08T01:05:47.838Z,0
2017-11-08T01:06:13.957Z,0
2017-11-08T01:06:40.080Z,0
2017-11-08T01:07:06.220Z,0
2017-11-08T01:07:32.344Z,0
2017-11-08T01:07:58.465Z,0
2017-11-08T01:08:24.581Z,0
2017-11-08T01:08:50.706Z,0
2017-11-08T01:09:16.823Z,0
2017-11-08T01:09:42.947Z,0
2017-11-08T01:10:09.072Z,0
2017-11-08T01:10:35.192Z,0
2017-11-08T01:11:01.307Z,0
2017-11-08T01:11:27.436Z,0
2017-11-08T01:11:53.555Z,0
2017-11-08T01:12:19.672Z,0
2017-11-08T01:12:45.796Z,0
2017-11-08T01:13:11.918Z,0
2017-11-08T01:13:38.033Z,0
2017-11-08T01:14:04.159Z,0
2017-11-08T01:14:30.283Z,0
2017-11-08T01:14:56.403Z,0
2017-11-08T01:15:22.528Z,0
2017-11-08T01:15:48.649Z,0
2017-11-08T01:16:14.765Z,0
2017-11-08T01:16:40.889Z,0
2017-11-08T01:17:07.011Z,0
2017-11-08T01:17:33.133Z,0
2017-11-08T01:17:59.253Z,0
2017-11-08T01:18:25.370Z,0
2017-11-08T01:18:51.494Z,0
2017-11-08T01:19:17.615Z,0
2017-11-08T01:19:43.731Z,0
2017-11-08T01:20:09.854Z,0
2017-11-08T01:20:35.973Z,0
2017-11-08T01:21:02.089Z,0
2017-11-08T01:21:28.213Z,0
2017-11-08T01:21:54.351Z,0
2017-11-08T01:22:20.459Z,0
2017-11-08T01:22:46.576Z,0
2017-11-08T01:23:12.702Z,0
2017-11-08T01:23:38.837Z,0
2017-11-08T01:24:04.945Z,0
2017-11-08T01:24:31.063Z,0
2017-11-08T01:24:57.200Z,0
2017-11-08T01:25:23.337Z,0
2017-11-08T01:25:49.449Z,0
2017-11-08T01:26:15.573Z,0
2017-11-08T01:26:41.701Z,0
2017-11-08T01:27:07.815Z,0
2017-11-08T01:27:33.928Z,0
2017-11-08T01:28:00.053Z,0
2017-11-08T01:28:26.178Z,0
2017-11-08T01:28:52.304Z,0
2017-11-08T01:29:18.421Z,0
2017-11-08T01:29:44.544Z,0
2017-11-08T01:30:10.671Z,0
2017-11-08T01:30:36.788Z,0
2017-11-08T01:31:02.913Z,0
2017-11-08T01:31:29.053Z,0
2017-11-08T01:31:55.174Z,0
2017-11-08T01:32:21.289Z,0
2017-11-08T01:32:47.431Z,0
2017-11-08T01:33:13.555Z,0
2017-11-08T01:33:39.695Z,0
2017-11-08T01:34:05.812Z,0
2017-11-08T01:34:31.939Z,0
2017-11-08T01:34:58.055Z,0
2017-11-08T01:35:24.181Z,0
2017-11-08T01:35:50.298Z,0
2017-11-08T01:36:16.446Z,0
2017-11-08T01:36:42.564Z,0
2017-11-08T01:37:08.684Z,0
2017-11-08T01:37:34.809Z,0
2017-11-08T01:38:00.930Z,0
2017-11-08T01:38:27.046Z,0
2017-11-08T01:38:53.166Z,0
2017-11-08T01:39:19.315Z,0
2017-11-08T01:39:45.429Z,0
2017-11-08T01:40:11.556Z,0
2017-11-08T01:40:37.689Z,0
2017-11-08T01:41:03.817Z,0
2017-11-08T01:41:29.943Z,0
2017-11-08T01:41:56.068Z,0
2017-11-08T01:42:22.186Z,0
2017-11-08T01:42:48.332Z,0
2017-11-08T01:43:14.453Z,0
2017-11-08T01:43:40.578Z,0
2017-11-08T01:44:06.700Z,0
2017-11-08T01:44:32.817Z,0
2017-11-08T01:44:58.937Z,0
2017-11-08T01:45:25.060Z,0
2017-11-08T01:45:51.184Z,0
2017-11-08T01:46:17.387Z,0
2017-11-08T01:46:43.626Z,0
2017-11-08T01:47:09.759Z,0
2017-11-08T01:47:35.915Z,0
2017-11-08T01:48:02.043Z,0
2017-11-08T01:48:28.160Z,0
2017-11-08T01:48:54.284Z,0
2017-11-08T01:49:20.411Z,0
2017-11-08T01:49:46.532Z,0
2017-11-08T01:50:12.650Z,0
2017-11-08T01:50:38.789Z,0
2017-11-08T01:51:04.922Z,0
2017-11-08T01:51:31.048Z,0
2017-11-08T01:51:57.170Z,0
2017-11-08T01:52:23.308Z,0
2017-11-08T01:52:49.453Z,0
2017-11-08T01:53:15.577Z,0
2017-11-08T01:53:41.694Z,0
2017-11-08T01:54:07.818Z,0
2017-11-08T01:54:33.943Z,0
2017-11-08T01:55:00.059Z,0
2017-11-08T01:55:26.183Z,0
2017-11-08T01:55:52.301Z,0
2017-11-08T01:56:18.427Z,0
2017-11-08T01:56:44.549Z,0
2017-11-08T01:57:10.799Z,0
2017-11-08T01:57:36.966Z,0
2017-11-08T01:58:03.092Z,0
2017-11-08T01:58:29.216Z,0
2017-11-08T01:58:55.332Z,0
2017-11-08T01:59:21.455Z,0
2017-11-08T01:59:47.607Z,0
2017-11-08T02:00:13.978Z,0
2017-11-08T02:00:40.094Z,0
2017-11-08T02:01:06.216Z,0
2017-11-08T02:01:32.342Z,0
2017-11-08T02:01:58.459Z,0
2017-11-08T02:02:24.578Z,0
2017-11-08T02:02:50.698Z,0
2017-11-08T02:03:16.843Z,0
2017-11-08T02:03:42.961Z,0
2017-11-08T02:04:09.079Z,0
2017-11-08T02:04:35.202Z,0
2017-11-08T02:05:01.319Z,0
2017-11-08T02:05:27.452Z,0
2017-11-08T02:05:53.573Z,0
2017-11-08T02:06:19.690Z,0
2017-11-08T02:06:45.815Z,0
2017-11-08T02:07:11.935Z,0
2017-11-08T02:07:38.055Z,0
2017-11-08T02:08:04.177Z,0
2017-11-08T02:08:30.297Z,0
2017-11-08T02:08:56.420Z,0
2017-11-08T02:09:22.537Z,0
2017-11-08T02:09:48.663Z,0
2017-11-08T02:10:14.781Z,0
2017-11-08T02:10:40.907Z,0
2017-11-08T02:11:07.027Z,0
2017-11-08T02:11:33.140Z,0
2017-11-08T02:11:59.269Z,0
2017-11-08T02:12:25.417Z,0
2017-11-08T02:12:51.531Z,0
2017-11-08T02:13:17.654Z,0
2017-11-08T02:13:43.779Z,0
2017-11-08T02:14:09.902Z,0
2017-11-08T02:14:36.017Z,0
2017-11-08T02:15:02.138Z,0
2017-11-08T02:15:28.267Z,0
2017-11-08T02:15:54.383Z,0
2017-11-08T02:16:20.521Z,0
2017-11-08T02:16:46.649Z,0
2017-11-08T02:17:12.766Z,0
2017-11-08T02:17:38.896Z,0
2017-11-08T02:18:05.061Z,0
2017-11-08T02:18:31.179Z,0
2017-11-08T02:18:57.323Z,0
2017-11-08T02:19:23.442Z,0
2017-11-08T02:19:49.563Z,0
2017-11-08T02:20:15.683Z,0
2017-11-08T02:20:41.810Z,0
2017-11-08T02:21:07.919Z,0
2017-11-08T02:21:34.049Z,0
2017-11-08T02:22:00.169Z,0
2017-11-08T02:22:26.284Z,0
2017-11-08T02:22:52.409Z,0
2017-11-08T02:23:18.532Z,0
2017-11-08T02:23:44.648Z,0
2017-11-08T02:24:10.772Z,0
2017-11-08T02:24:36.895Z,0
2017-11-08T02:25:03.018Z,0
2017-11-08T02:25:29.134Z,0
2017-11-08T02:25:55.256Z,0
2017-11-08T02:26:21.378Z,0
2017-11-08T02:26:47.506Z,0
2017-11-08T02:27:13.624Z,0
2017-11-08T02:27:39.746Z,0
2017-11-08T02:28:05.858Z,0
2017-11-08T02:28:31.984Z,0
2017-11-08T02:28:58.097Z,0
2017-11-08T02:29:24.512Z,0
2017-11-08T02:29:51.049Z,0
2017-11-08T02:30:17.168Z,0
2017-11-08T02:30:43.293Z,0
2017-11-08T02:31:09.412Z,0
2017-11-08T02:31:35.540Z,0
2017-11-08T02:32:01.663Z,0
2017-11-08T02:32:27.785Z,0
2017-11-08T02:32:53.901Z,0
2017-11-08T02:33:20.020Z,0
2017-11-08T02:33:46.141Z,0
2017-11-08T02:34:12.257Z,0
2017-11-08T02:34:38.382Z,0
2017-11-08T02:35:04.500Z,0
2017-11-08T02:35:30.627Z,0
2017-11-08T02:35:56.747Z,0
2017-11-08T02:36:22.876Z,0
2017-11-08T02:36:49.029Z,0
2017-11-08T02:37:15.151Z,0
2017-11-08T02:37:41.267Z,0
2017-11-08T02:38:07.390Z,0
2017-11-08T02:38:33.515Z,0
2017-11-08T02:38:59.636Z,0
2017-11-08T02:39:25.750Z,0
2017-11-08T02:39:51.868Z,0
2017-11-08T02:40:17.991Z,0
2017-11-08T02:40:44.117Z,0
2017-11-08T02:41:10.232Z,0
2017-11-08T02:41:36.351Z,0
2017-11-08T02:42:02.496Z,0
2017-11-08T02:42:28.611Z,0
2017-11-08T02:42:54.734Z,0
2017-11-08T02:43:20.859Z,0
2017-11-08T02:43:46.997Z,0
2017-11-08T02:44:13.122Z,0
2017-11-08T02:44:39.237Z,0
2017-11-08T02:45:05.364Z,0
2017-11-08T02:45:31.481Z,0
2017-11-08T02:45:57.606Z,0
2017-11-08T02:46:23.727Z,0
2017-11-08T02:46:49.840Z,0
2017-11-08T02:47:15.959Z,0
2017-11-08T02:47:42.088Z,0
2017-11-08T02:48:08.197Z,0
2017-11-08T02:48:34.322Z,0
2017-11-08T02:49:00.438Z,0
2017-11-08T02:49:26.565Z,0
2017-11-08T02:49:52.698Z,0
2017-11-08T02:50:18.825Z,0
2017-11-08T02:50:44.946Z,0
2017-11-08T02:51:11.070Z,0
2017-11-08T02:51:37.195Z,0
2017-11-08T02:52:03.311Z,0
2017-11-08T02:52:29.438Z,0
2017-11-08T02:52:55.551Z,0
2017-11-08T02:53:21.697Z,0
2017-11-08T02:53:47.827Z,0
2017-11-08T02:54:13.978Z,0
2017-11-08T02:54:40.093Z,0
2017-11-08T02:55:06.220Z,0
2017-11-08T02:55:32.337Z,0
2017-11-08T02:55:58.481Z,0
2017-11-08T02:56:24.619Z,0
2017-11-08T02:56:50.748Z,0
2017-11-08T02:57:16.890Z,0
2017-11-08T02:57:43.009Z,0
2017-11-08T02:58:09.134Z,0
2017-11-08T02:58:35.253Z,0
2017-11-08T02:59:01.372Z,0
2017-11-08T02:59:27.497Z,0
2017-11-08T02:59:53.642Z,0
2017-11-08T03:00:19.757Z,0
2017-11-08T03:00:45.883Z,0
2017-11-08T03:01:12.000Z,0
2017-11-08T03:01:38.120Z,0
2017-11-08T03:02:04.259Z,0
2017-11-08T03:02:30.383Z,0
2017-11-08T03:02:56.501Z,0
2017-11-08T03:03:22.620Z,0
2017-11-08T03:03:48.742Z,0
2017-11-08T03:04:14.862Z,0
2017-11-08T03:04:40.993Z,0
2017-11-08T03:05:07.108Z,0
2017-11-08T03:05:33.224Z,0
2017-11-08T03:05:59.350Z,0
2017-11-08T03:06:25.467Z,0
2017-11-08T03:06:51.587Z,0
2017-11-08T03:07:17.714Z,0
2017-11-08T03:07:43.831Z,0
2017-11-08T03:08:09.961Z,0
2017-11-08T03:08:36.080Z,0
2017-11-08T03:09:02.197Z,0
2017-11-08T03:09:28.336Z,0
2017-11-08T03:09:54.465Z,0
2017-11-08T03:10:20.586Z,0
2017-11-08T03:10:46.702Z,0
2017-11-08T03:11:12.826Z,0
2017-11-08T03:11:38.950Z,0
2017-11-08T03:12:05.071Z,0
2017-11-08T03:12:31.188Z,0
2017-11-08T03:12:57.311Z,0
2017-11-08T03:13:23.425Z,0
2017-11-08T03:13:49.543Z,0
2017-11-08T03:14:15.667Z,0
2017-11-08T03:14:41.811Z,0
2017-11-08T03:15:07.933Z,0
2017-11-08T03:15:34.050Z,0
2017-11-08T03:16:00.171Z,0
2017-11-08T03:16:26.292Z,0
2017-11-08T03:16:52.417Z,0
2017-11-08T03:17:18.557Z,0
2017-11-08T03:17:44.679Z,0
2017-11-08T03:18:10.805Z,0
2017-11-08T03:18:36.917Z,0
2017-11-08T03:19:03.039Z,0
2017-11-08T03:19:29.157Z,0
2017-11-08T03:19:55.278Z,0
2017-11-08T03:20:21.404Z,0
2017-11-08T03:20:47.519Z,0
2017-11-08T03:21:13.666Z,0
2017-11-08T03:21:39.782Z,0
2017-11-08T03:22:05.908Z,0
2017-11-08T03:22:32.032Z,0
2017-11-08T03:22:58.146Z,0
2017-11-08T03:23:24.267Z,0
2017-11-08T03:23:50.392Z,0
2017-11-08T03:24:16.515Z,0
2017-11-08T03:24:42.630Z,0
2017-11-08T03:25:08.757Z,0
2017-11-08T03:25:34.869Z,0
2017-11-08T03:26:00.998Z,0
2017-11-08T03:26:27.113Z,0
2017-11-08T03:26:53.234Z,0
2017-11-08T03:27:19.359Z,0
2017-11-08T03:27:45.475Z,0
2017-11-08T03:28:11.598Z,0
2017-11-08T03:28:37.720Z,0
2017-11-08T03:29:03.844Z,0
2017-11-08T03:29:29.968Z,0
2017-11-08T03:29:56.095Z,0
2017-11-08T03:30:22.213Z,0
2017-11-08T03:30:48.332Z,0
2017-11-08T03:31:14.465Z,0
2017-11-08T03:31:40.572Z,0
2017-11-08T03:32:06.699Z,0
2017-11-08T03:32:32.827Z,0
2017-11-08T03:32:58.932Z,0
2017-11-08T03:33:25.051Z,0
2017-11-08T03:33:51.169Z,0
2017-11-08T03:34:17.296Z,0
2017-11-08T03:34:43.417Z,0
2017-11-08T03:35:09.527Z,0
2017-11-08T03:35:35.655Z,0
2017-11-08T03:36:01.798Z,0
2017-11-08T03:36:27.918Z,0
2017-11-08T03:36:54.042Z,0
2017-11-08T03:37:20.163Z,0
2017-11-08T03:37:46.293Z,0
2017-11-08T03:38:12.412Z,0
2017-11-08T03:38:38.524Z,0
2017-11-08T03:39:04.646Z,0
2017-11-08T03:39:30.763Z,0
2017-11-08T03:39:56.885Z,0
2017-11-08T03:40:23.010Z,0
2017-11-08T03:40:49.164Z,0
2017-11-08T03:41:15.293Z,0
2017-11-08T03:41:41.414Z,0
2017-11-08T03:42:07.538Z,0
2017-11-08T03:42:33.662Z,0
2017-11-08T03:42:59.776Z,0
2017-11-08T03:43:25.899Z,0
2017-11-08T03:43:52.021Z,0
2017-11-08T03:44:18.145Z,0
2017-11-08T03:44:44.264Z,0
2017-11-08T03:45:10.393Z,0
2017-11-08T03:45:36.529Z,0
2017-11-08T03:46:02.651Z,0
2017-11-08T03:46:28.789Z,0
2017-11-08T03:46:54.917Z,0
2017-11-08T03:47:21.060Z,0
2017-11-08T03:47:47.186Z,0
2017-11-08T03:48:13.301Z,0
2017-11-08T03:48:39.424Z,0
2017-11-08T03:49:05.550Z,0
2017-11-08T03:49:31.672Z,0
2017-11-08T03:49:57.792Z,0
2017-11-08T03:50:23.911Z,0
2017-11-08T03:50:50.029Z,0
2017-11-08T03:51:16.145Z,0
2017-11-08T03:51:42.269Z,0
2017-11-08T03:52:08.392Z,0
2017-11-08T03:52:34.517Z,0
2017-11-08T03:53:00.639Z,0
2017-11-08T03:53:26.769Z,0
2017-11-08T03:53:52.882Z,0
2017-11-08T03:54:19.019Z,0
2017-11-08T03:54:45.138Z,0
2017-11-08T03:55:11.263Z,0
2017-11-08T03:55:37.383Z,0
2017-11-08T03:56:03.504Z,0
2017-11-08T03:56:29.625Z,0
2017-11-08T03:56:55.747Z,0
2017-11-08T03:57:21.871Z,0
2017-11-08T03:57:47.987Z,0
2017-11-08T03:58:14.108Z,0
2017-11-08T03:58:40.235Z,0
2017-11-08T03:59:06.358Z,0
2017-11-08T03:59:32.474Z,0
2017-11-08T03:59:58.592Z,0
2017-11-08T04:00:24.738Z,0
2017-11-08T04:00:50.853Z,0
2017-11-08T04:01:16.979Z,0
2017-11-08T04:01:43.120Z,0
2017-11-08T04:02:09.235Z,0
2017-11-08T04:02:35.360Z,0
2017-11-08T04:03:01.486Z,0
2017-11-08T04:03:27.627Z,0
2017-11-08T04:03:53.752Z,0
2017-11-08T04:04:19.866Z,0
2017-11-08T04:04:46.008Z,0
2017-11-08T04:05:12.125Z,0
2017-11-08T04:05:38.244Z,0
2017-11-08T04:06:04.367Z,0
2017-11-08T04:06:30.484Z,0
2017-11-08T04:06:56.616Z,0
2017-11-08T04:07:22.735Z,0
2017-11-08T04:07:48.858Z,0
2017-11-08T04:08:14.979Z,0
2017-11-08T04:08:41.101Z,0
2017-11-08T04:09:07.236Z,0
2017-11-08T04:09:33.362Z,0
2017-11-08T04:09:59.476Z,0
2017-11-08T04:10:25.598Z,0
2017-11-08T04:10:51.737Z,0
2017-11-08T04:11:17.852Z,0
2017-11-08T04:11:43.976Z,0
2017-11-08T04:12:10.099Z,0
2017-11-08T04:12:36.223Z,0
2017-11-08T04:13:02.347Z,0
2017-11-08T04:13:28.473Z,0
2017-11-08T04:13:54.587Z,0
2017-11-08T04:14:20.710Z,0
2017-11-08T04:14:46.825Z,0
2017-11-08T04:15:12.947Z,0
2017-11-08T04:15:39.077Z,0
2017-11-08T04:16:05.193Z,0
2017-11-08T04:16:31.317Z,0
2017-11-08T04:16:57.471Z,0
2017-11-08T04:17:23.581Z,0
2017-11-08T04:17:49.703Z,0
2017-11-08T04:18:15.817Z,0
2017-11-08T04:18:41.965Z,0
2017-11-08T04:19:08.081Z,0
2017-11-08T04:19:34.208Z,0
2017-11-08T04:20:00.329Z,0
2017-11-08T04:20:26.450Z,0
2017-11-08T04:20:52.571Z,0
2017-11-08T04:21:18.709Z,0
2017-11-08T04:21:44.836Z,0
2017-11-08T04:22:10.986Z,0
2017-11-08T04:22:37.097Z,0
2017-11-08T04:23:03.218Z,0
2017-11-08T04:23:29.334Z,0
2017-11-08T04:23:55.464Z,0
2017-11-08T04:24:21.583Z,0
2017-11-08T04:24:47.702Z,0
2017-11-08T04:25:13.817Z,0
2017-11-08T04:25:39.943Z,0
2017-11-08T04:26:06.087Z,0
2017-11-08T04:26:32.202Z,0
2017-11-08T04:26:58.330Z,0
2017-11-08T04:27:24.449Z,0
2017-11-08T04:27:50.565Z,0
2017-11-08T04:28:16.690Z,0
2017-11-08T04:28:42.806Z,0
2017-11-08T04:29:08.934Z,0
2017-11-08T04:29:35.048Z,0
2017-11-08T04:30:01.177Z,0
2017-11-08T04:30:27.292Z,0
2017-11-08T04:30:53.413Z,0
2017-11-08T04:31:19.532Z,0
2017-11-08T04:31:45.655Z,0
2017-11-08T04:32:11.777Z,0
2017-11-08T04:32:37.915Z,0
2017-11-08T04:33:04.047Z,0
2017-11-08T04:33:30.164Z,0
2017-11-08T04:33:56.289Z,0
2017-11-08T04:34:22.405Z,0
2017-11-08T04:34:48.524Z,0
2017-11-08T04:35:14.649Z,0
2017-11-08T04:35:40.775Z,0
2017-11-08T04:36:06.892Z,0
2017-11-08T04:36:33.014Z,0
2017-11-08T04:36:59.128Z,0
2017-11-08T04:37:25.246Z,0
2017-11-08T04:37:51.374Z,0
2017-11-08T04:38:17.496Z,0
2017-11-08T04:38:43.621Z,0
2017-11-08T04:39:09.761Z,0
2017-11-08T04:39:35.879Z,0
2017-11-08T04:40:01.998Z,0
2017-11-08T04:40:28.148Z,0
2017-11-08T04:40:54.264Z,0
2017-11-08T04:41:20.386Z,0
2017-11-08T04:41:46.505Z,0
2017-11-08T04:42:12.627Z,0
2017-11-08T04:42:38.777Z,0
2017-11-08T04:43:04.913Z,0
2017-11-08T04:43:31.033Z,0
2017-11-08T04:43:57.187Z,0
2017-11-08T04:44:23.307Z,0
2017-11-08T04:44:49.422Z,0
2017-11-08T04:45:15.560Z,0
2017-11-08T04:45:41.701Z,0
2017-11-08T04:46:07.821Z,0
2017-11-08T04:46:33.944Z,0
2017-11-08T04:47:00.065Z,0
2017-11-08T04:47:26.216Z,0
2017-11-08T04:47:52.312Z,0
2017-11-08T04:48:18.429Z,0
2017-11-08T04:48:44.546Z,0
2017-11-08T04:49:10.671Z,0
2017-11-08T04:49:36.794Z,0
2017-11-08T04:50:02.921Z,0
2017-11-08T04:50:29.031Z,0
2017-11-08T04:50:55.169Z,0
2017-11-08T04:51:21.282Z,0
2017-11-08T04:51:47.403Z,0
2017-11-08T04:52:13.531Z,0
2017-11-08T04:52:39.649Z,0
2017-11-08T04:53:05.776Z,0
2017-11-08T04:53:31.900Z,0
2017-11-08T04:53:58.013Z,0
2017-11-08T04:54:24.139Z,0
2017-11-08T04:54:50.259Z,0
2017-11-08T04:55:16.380Z,0
2017-11-08T04:55:42.505Z,0
2017-11-08T04:56:08.617Z,0
2017-11-08T04:56:34.741Z,0
2017-11-08T04:57:00.858Z,0
2017-11-08T04:57:26.980Z,0
2017-11-08T04:57:53.312Z,0
2017-11-08T04:58:19.562Z,0
2017-11-08T04:58:45.690Z,0
2017-11-08T04:59:11.806Z,0
2017-11-08T04:59:37.951Z,0
2017-11-08T05:00:04.067Z,0
2017-11-08T05:00:30.189Z,0
2017-11-08T05:00:56.315Z,0
2017-11-08T05:01:22.432Z,0
2017-11-08T05:01:48.559Z,0
2017-11-08T05:02:14.679Z,0
2017-11-08T05:02:40.794Z,0
2017-11-08T05:03:06.923Z,0
2017-11-08T05:03:33.046Z,0
2017-11-08T05:03:59.176Z,0
2017-11-08T05:04:25.281Z,0
2017-11-08T05:04:51.407Z,0
2017-11-08T05:05:17.540Z,0
2017-11-08T05:05:43.650Z,0
2017-11-08T05:06:09.768Z,0
2017-11-08T05:06:35.889Z,0
2017-11-08T05:07:02.033Z,0
2017-11-08T05:07:28.149Z,0
2017-11-08T05:07:54.275Z,0
2017-11-08T05:08:20.392Z,0
2017-11-08T05:08:46.513Z,0
2017-11-08T05:09:12.639Z,0
2017-11-08T05:09:38.754Z,0
2017-11-08T05:10:04.880Z,0
2017-11-08T05:10:31.002Z,0
2017-11-08T05:10:57.120Z,0
2017-11-08T05:11:23.246Z,0
2017-11-08T05:11:49.361Z,0
2017-11-08T05:12:15.481Z,0
2017-11-08T05:12:41.603Z,0
2017-11-08T05:13:07.747Z,0
2017-11-08T05:13:33.865Z,0
2017-11-08T05:13:59.986Z,0
2017-11-08T05:14:26.104Z,0
2017-11-08T05:14:52.236Z,0
2017-11-08T05:15:18.375Z,0
2017-11-08T05:15:44.492Z,0
2017-11-08T05:16:10.617Z,0
2017-11-08T05:16:36.732Z,0
2017-11-08T05:17:02.860Z,0
2017-11-08T05:17:28.970Z,0
2017-11-08T05:17:55.097Z,0
2017-11-08T05:18:21.219Z,0
2017-11-08T05:18:47.376Z,0
2017-11-08T05:19:13.500Z,0
2017-11-08T05:19:39.615Z,0
2017-11-08T05:20:05.739Z,0
2017-11-08T05:20:31.860Z,0
2017-11-08T05:20:57.992Z,0
2017-11-08T05:21:24.114Z,0
2017-11-08T05:21:50.233Z,0
2017-11-08T05:22:16.359Z,0
2017-11-08T05:22:42.478Z,0
2017-11-08T05:23:08.594Z,0
2017-11-08T05:23:34.717Z,0
2017-11-08T05:24:00.834Z,0
2017-11-08T05:24:26.982Z,0
2017-11-08T05:24:53.101Z,0
2017-11-08T05:25:19.224Z,0
2017-11-08T05:25:45.343Z,0
2017-11-08T05:26:11.460Z,0
2017-11-08T05:26:37.581Z,0
2017-11-08T05:27:03.707Z,0
2017-11-08T05:27:29.825Z,0
2017-11-08T05:27:55.950Z,0
2017-11-08T05:28:22.069Z,0
2017-11-08T05:28:48.193Z,0
2017-11-08T05:29:14.340Z,0
2017-11-08T05:29:40.446Z,0
2017-11-08T05:30:06.593Z,0
2017-11-08T05:30:32.711Z,0
2017-11-08T05:30:58.835Z,0
2017-11-08T05:31:24.975Z,0
2017-11-08T05:31:51.100Z,0
2017-11-08T05:32:17.213Z,0
2017-11-08T05:32:43.353Z,0
2017-11-08T05:33:09.456Z,0
2017-11-08T05:33:35.575Z,0
2017-11-08T05:34:01.701Z,0
2017-11-08T05:34:27.837Z,0
2017-11-08T05:34:53.983Z,0
2017-11-08T05:35:20.104Z,0
2017-11-08T05:35:46.223Z,0
2017-11-08T05:36:12.351Z,0
2017-11-08T05:36:38.465Z,0
2017-11-08T05:37:04.585Z,0
2017-11-08T05:37:30.713Z,0
2017-11-08T05:37:56.824Z,0
2017-11-08T05:38:22.952Z,0
2017-11-08T05:38:49.069Z,0
2017-11-08T05:39:15.198Z,0
2017-11-08T05:39:41.311Z,0
2017-11-08T05:40:07.457Z,0
2017-11-08T05:40:33.577Z,0
2017-11-08T05:40:59.698Z,0
2017-11-08T05:41:25.818Z,0
2017-11-08T05:41:51.941Z,0
2017-11-08T05:42:18.060Z,0
2017-11-08T05:42:44.185Z,0
2017-11-08T05:43:10.300Z,0
2017-11-08T05:43:36.428Z,0
2017-11-08T05:44:02.541Z,0
2017-11-08T05:44:28.659Z,0
2017-11-08T05:44:54.792Z,0
2017-11-08T05:45:20.912Z,0
2017-11-08T05:45:47.038Z,0
2017-11-08T05:46:13.155Z,0
2017-11-08T05:46:39.277Z,0
2017-11-08T05:47:05.399Z,0
2017-11-08T05:47:31.514Z,0
2017-11-08T05:47:57.641Z,0
2017-11-08T05:48:23.757Z,0
2017-11-08T05:48:49.875Z,0
2017-11-08T05:49:15.999Z,0
2017-11-08T05:49:42.115Z,0
2017-11-08T05:50:08.261Z,0
2017-11-08T05:50:34.388Z,0
2017-11-08T05:51:00.518Z,0
2017-11-08T05:51:26.624Z,0
2017-11-08T05:51:52.746Z,0
2017-11-08T05:52:18.872Z,0
2017-11-08T05:52:44.989Z,0
2017-11-08T05:53:11.108Z,0
2017-11-08T05:53:37.235Z,0
2017-11-08T05:54:03.351Z,0
2017-11-08T05:54:29.475Z,0
2017-11-08T05:54:55.594Z,0
2017-11-08T05:55:21.724Z,0
2017-11-08T05:55:47.839Z,0
2017-11-08T05:56:13.962Z,0
2017-11-08T05:56:40.080Z,0
2017-11-08T05:57:06.206Z,0
2017-11-08T05:57:32.326Z,0
2017-11-08T05:57:58.463Z,0
2017-11-08T05:58:24.594Z,0
2017-11-08T05:58:50.710Z,0
2017-11-08T05:59:16.836Z,0
2017-11-08T05:59:42.948Z,0
2017-11-08T06:00:09.070Z,0
2017-11-08T06:00:35.188Z,0
2017-11-08T06:01:01.308Z,0
2017-11-08T06:01:27.433Z,0
2017-11-08T06:01:53.550Z,0
2017-11-08T06:02:19.678Z,0
2017-11-08T06:02:45.792Z,0
2017-11-08T06:03:11.942Z,0
2017-11-08T06:03:38.058Z,0
2017-11-08T06:04:04.194Z,0
2017-11-08T06:04:30.306Z,0
2017-11-08T06:04:56.425Z,0
2017-11-08T06:05:22.555Z,0
2017-11-08T06:05:48.671Z,0
2017-11-08T06:06:14.798Z,0
2017-11-08T06:06:40.907Z,4
2017-11-08T06:07:07.048Z,4
2017-11-08T06:07:33.177Z,4
2017-11-08T06:07:59.321Z,4
2017-11-08T06:08:25.440Z,4
2017-11-08T06:08:51.561Z,4
2017-11-08T06:09:17.679Z,4
2017-11-08T06:09:43.805Z,4
2017-11-08T06:10:09.934Z,0
2017-11-08T06:10:36.070Z,4
2017-11-08T06:11:02.187Z,4
2017-11-08T06:11:28.315Z,4
2017-11-08T06:11:54.430Z,4
2017-11-08T06:12:20.554Z,4
2017-11-08T06:12:46.670Z,8
2017-11-08T06:13:12.790Z,4
2017-11-08T06:13:38.917Z,4
2017-11-08T06:14:05.043Z,8
2017-11-08T06:14:31.156Z,8
2017-11-08T06:14:57.278Z,8
2017-11-08T06:15:23.396Z,8
2017-11-08T06:15:49.514Z,12
2017-11-08T06:16:15.642Z,8
2017-11-08T06:16:41.759Z,12
2017-11-08T06:17:07.887Z,12
2017-11-08T06:17:34.032Z,12
2017-11-08T06:18:00.149Z,12
2017-11-08T06:18:26.275Z,16
2017-11-08T06:18:52.391Z,12
2017-11-08T06:19:18.523Z,16
2017-11-08T06:19:44.640Z,12
2017-11-08T06:20:10.791Z,16
2017-11-08T06:20:36.915Z,16
2017-11-08T06:21:03.034Z,20
2017-11-08T06:21:29.160Z,20
2017-11-08T06:21:55.280Z,24
2017-11-08T06:22:21.401Z,24
2017-11-08T06:22:47.526Z,20
2017-11-08T06:23:13.643Z,24
2017-11-08T06:23:39.768Z,24
2017-11-08T06:24:05.886Z,28
2017-11-08T06:24:32.021Z,28
2017-11-08T06:24:58.140Z,28
2017-11-08T06:25:24.258Z,32
2017-11-08T06:25:50.378Z,32